Houston, Texas
Traffic Map
Current Weather Conditions
Houston, Texas
Clear
Clear
-6°
Feels Like: -6°
Wind Chill: -6° Ceiling: Unl
Heat Index: -6° Visibility: 10mi
Dew Point: -8° Wind: 3mph
Humidity: 82% Direction: 40° (NE)
Pressure: 30.6in Gusts: 0mph
Raw Report DataKIAH 180753Z 04003KT 10SM CLR M06/M08 A3060 RMK AO2 SLP364 T10561083 $
Traffic Incident Summary
Active as of:
Severity:
Category:
InformationThere was an issue retrieving the traffic information for this location. Please try a different location or try again shortly.
Advertisements